Terminal Aerodrome Forecast
Issued by NWS Omaha/Valley, NE

Home | Current Version | Previous Version | Graphics & Text | Print | Product List | Glossary On
Versions: 1 2 3 4 5 6 7 8 9 10 11 12 13 14 15 16 17 18 19 20 21 22 23 24 25 26 27 28 29 30 31 32
000
FTUS43 KOAX 250520
TAFOFK
TAF
KOFK 250520Z 2506/2606 VRB03KT P6SM BKN150
     FM251200 34006KT P6SM BKN150
     FM251700 35010KT P6SM SCT150
     FM252300 01006KT P6SM SCT100=

USA.gov is the U.S. government's official web portal to all federal, state and local government web resources and services.